Terminal Aerodrome Forecast
Issued by NWS

Home | Current Version | Previous Version | Text Only | Print | Product List | Glossary On
Versions: 1 2 3 4 5 6 7 8 9 10 11 12 13 14 15 16 17 18 19 20 21 22 23
000
FTUS43 KGLD 301737
TAFMCK
TAF
KMCK 301737Z 3018/3118 09005KT P6SM VCTS SCT035 BKN070CB
     FM310300 08004KT P6SM VCSH SCT015 BKN035
     FM310900 VRB03KT 5SM BR VCSH SCT005 BKN015
     FM311100 VRB03KT 1SM BR BKN003
     FM311400 VRB05KT 6SM BR BKN007
     FM311600 08008KT P6SM SCT007 BKN035=

USA.gov is the U.S. government's official web portal to all federal, state and local government web resources and services.